Time;durP1;ratioP1;P1;durP2;ratioP2;P2;SDS_P1;SDS_P2;PMS_P1;PMS_P2;Temp;Humidity;BMP_temperature;BMP_pressure;BME280_temperature;BME280_humidity;BME280_pressure;Samples;Min_cycle;Max_cycle;Signal;HPM_P1;HPM_P2
2022/06/08 00:02:21;;;;;;;4.88;2.60;;;18.00;92.70;;;;;;5087542;28;20208;-83
2022/06/08 00:04:47;;;;;;;3.92;3.20;;;17.90;92.50;;;;;;5082275;28;20478;-83
2022/06/08 00:07:13;;;;;;;2.83;2.55;;;17.90;92.90;;;;;;5064420;28;20266;-83
2022/06/08 00:09:39;;;;;;;2.70;2.50;;;18.00;92.90;;;;;;5080052;28;20247;-83
2022/06/08 00:12:05;;;;;;;3.00;2.80;;;18.00;92.80;;;;;;5048255;28;20246;-83
2022/06/08 00:14:31;;;;;;;4.35;3.05;;;18.10;92.50;;;;;;5061260;28;20195;-83
2022/06/08 00:16:56;;;;;;;3.25;2.85;;;17.90;92.50;;;;;;5064868;28;20206;-83
2022/06/08 00:19:22;;;;;;;2.78;2.58;;;17.80;93.50;;;;;;5079806;28;20192;-83
2022/06/08 00:21:48;;;;;;;2.97;2.58;;;17.80;93.50;;;;;;5047237;28;20223;-84
2022/06/08 00:24:13;;;;;;;3.65;2.80;;;17.90;93.30;;;;;;5063140;28;20237;-83
2022/06/08 00:26:39;;;;;;;3.30;3.00;;;17.90;93.00;;;;;;5086406;28;20190;-84
2022/06/08 00:29:06;;;;;;;3.60;3.00;;;17.90;93.30;;;;;;5068225;28;20192;-84
2022/06/08 00:31:31;;;;;;;2.92;2.72;;;17.90;93.10;;;;;;5096904;28;20203;-84
2022/06/08 00:33:57;;;;;;;4.00;3.10;;;17.90;92.80;;;;;;5079902;28;20213;-84
2022/06/08 00:36:23;;;;;;;3.40;3.10;;;17.70;93.70;;;;;;5080197;28;20243;-84
2022/06/08 00:38:49;;;;;;;3.42;3.00;;;17.60;94.00;;;;;;5082992;28;20211;-84
2022/06/08 00:41:29;;;;;;;4.55;3.13;;;17.50;95.40;;;;;;5079432;28;20681;-84
2022/06/08 00:43:56;;;;;;;3.30;3.10;;;17.40;96.30;;;;;;5081248;28;20230;-84
2022/06/08 00:46:22;;;;;;;3.13;2.90;;;17.20;97.80;;;;;;5082802;28;20700;-84
2022/06/08 00:48:52;;;;;;;2.80;2.60;;;17.30;97.30;;;;;;5081812;28;20191;-84
2022/06/08 00:51:18;;;;;;;3.78;3.10;;;17.30;97.40;;;;;;5083929;28;20269;-84
2022/06/08 00:53:55;;;;;;;3.60;3.30;;;17.40;97.00;;;;;;5082329;28;20726;-84
2022/06/08 00:56:24;;;;;;;4.10;2.45;;;17.40;96.70;;;;;;5066276;28;20657;-84
2022/06/08 00:58:51;;;;;;;3.22;2.92;;;17.30;96.30;;;;;;5066654;28;20202;-84
2022/06/08 01:01:16;;;;;;;3.45;3.10;;;17.30;96.70;;;;;;5085375;28;20214;-84
2022/06/08 01:03:43;;;;;;;3.13;2.83;;;17.40;96.40;;;;;;5074254;28;20192;-84
2022/06/08 01:06:21;;;;;;;4.00;3.20;;;17.40;96.60;;;;;;5083473;28;20307;-84
2022/06/08 01:08:53;;;;;;;3.30;3.00;;;17.40;96.10;;;;;;5077042;28;20179;-84
2022/06/08 01:11:21;;;;;;;3.42;2.90;;;17.30;96.10;;;;;;5082200;28;20183;-84
2022/06/08 01:13:48;;;;;;;2.78;2.58;;;17.30;97.20;;;;;;5078125;28;20183;-84
2022/06/08 01:16:14;;;;;;;3.10;2.90;;;17.30;96.20;;;;;;5061124;28;20194;-84
2022/06/08 01:18:41;;;;;;;3.47;3.17;;;17.30;95.70;;;;;;5081417;28;20258;-84
2022/06/08 01:21:21;;;;;;;3.22;2.92;;;17.40;95.20;;;;;;5084407;28;20206;-84
2022/06/08 01:24:02;;;;;;;6.63;3.10;;;17.40;95.20;;;;;;5063053;28;20214;-84
2022/06/08 01:26:56;;;;;;;3.80;3.20;;;17.30;95.70;;;;;;5080099;28;20187;-84
2022/06/08 01:29:35;;;;;;;3.05;2.85;;;17.30;95.30;;;;;;5079375;28;20185;-84
2022/06/08 01:32:33;;;;;;;8.05;3.10;;;17.30;95.40;;;;;;5058345;28;20240;-84
2022/06/08 01:35:20;;;;;;;3.15;2.53;;;17.30;95.30;;;;;;5083692;28;20181;-83
2022/06/08 01:37:48;;;;;;;3.50;2.95;;;17.30;95.70;;;;;;5076766;28;20195;-84
2022/06/08 01:40:42;;;;;;;3.88;2.80;;;17.20;95.90;;;;;;5080491;28;20192;-84
2022/06/08 01:43:29;;;;;;;3.47;3.00;;;17.30;95.80;;;;;;5083096;28;20355;-84
2022/06/08 01:46:07;;;;;;;3.50;3.20;;;17.20;95.50;;;;;;5068256;28;20219;-84
2022/06/08 01:48:50;;;;;;;4.78;3.28;;;17.20;96.00;;;;;;5076638;28;20208;-84
2022/06/08 01:51:25;;;;;;;5.85;2.88;;;17.30;95.60;;;;;;5078924;28;20292;-84
2022/06/08 01:54:22;;;;;;;3.90;3.03;;;17.40;95.70;;;;;;5079293;28;20175;-84
2022/06/08 01:56:53;;;;;;;4.10;3.20;;;17.40;95.40;;;;;;5081420;28;20656;-84
2022/06/08 01:59:37;;;;;;;3.10;2.78;;;17.40;95.30;;;;;;5062794;28;20191;-84
2022/06/08 02:02:28;;;;;;;4.78;2.83;;;17.40;94.80;;;;;;5072692;28;20223;-84
2022/06/08 02:05:05;;;;;;;4.30;3.13;;;17.40;94.80;;;;;;5075187;28;20197;-84
2022/06/08 02:07:40;;;;;;;3.42;3.05;;;17.40;94.40;;;;;;5080457;28;20229;-84
2022/06/08 02:10:17;;;;;;;3.15;2.85;;;17.40;94.50;;;;;;5083453;28;20182;-84
2022/06/08 02:12:52;;;;;;;3.28;3.08;;;17.40;94.50;;;;;;5080115;28;20299;-84
2022/06/08 02:15:25;;;;;;;3.63;3.30;;;17.40;94.40;;;;;;5082658;28;20282;-84
2022/06/08 02:17:54;;;;;;;3.30;2.80;;;17.40;94.50;;;;;;5082842;28;20191;-84
2022/06/08 02:20:34;;;;;;;3.53;2.83;;;17.30;94.30;;;;;;5083086;28;20392;-84
2022/06/08 02:23:12;;;;;;;2.83;2.58;;;17.30;93.20;;;;;;5089163;28;20209;-84
2022/06/08 02:25:45;;;;;;;3.65;3.35;;;17.30;93.90;;;;;;5081090;28;20218;-84
2022/06/08 02:28:24;;;;;;;3.95;3.30;;;17.20;94.10;;;;;;5087705;28;20179;-84
2022/06/08 02:30:56;;;;;;;3.85;2.90;;;17.20;95.40;;;;;;5085381;28;20186;-84
2022/06/08 02:36:22;;;;;;;3.63;3.15;;;17.20;94.50;;;;;;5083262;28;20628;-84
2022/06/08 02:39:14;;;;;;;3.63;3.17;;;17.20;95.20;;;;;;5083547;28;20186;-84
2022/06/08 02:41:43;;;;;;;4.15;3.67;;;17.10;95.40;;;;;;5092946;28;20211;-84
2022/06/08 02:44:14;;;;;;;4.55;3.15;;;17.20;95.10;;;;;;5079492;28;20276;-84
2022/06/08 02:46:48;;;;;;;4.75;3.30;;;17.10;94.80;;;;;;5084351;28;20183;-84
2022/06/08 02:49:14;;;;;;;4.80;3.00;;;17.10;94.40;;;;;;5083948;28;20186;-84
2022/06/08 02:51:44;;;;;;;3.77;3.10;;;16.90;94.60;;;;;;5082616;28;20221;-84
2022/06/08 02:54:24;;;;;;;4.60;2.72;;;16.80;95.20;;;;;;5082082;28;20686;-84
2022/06/08 02:57:02;;;;;;;5.38;3.40;;;16.80;96.10;;;;;;5084639;28;20182;-84
2022/06/08 02:59:34;;;;;;;4.18;3.67;;;16.80;95.80;;;;;;5083730;28;20189;-84
2022/06/08 03:02:17;;;;;;;7.80;3.33;;;16.90;95.70;;;;;;5082698;28;20280;-84
2022/06/08 03:04:59;;;;;;;3.08;2.78;;;16.90;95.00;;;;;;5081843;28;20203;-84
2022/06/08 03:07:43;;;;;;;3.58;3.17;;;16.90;95.30;;;;;;5081365;28;20660;-84
2022/06/08 03:10:13;;;;;;;7.30;3.40;;;17.00;95.40;;;;;;5080002;28;20183;-84
2022/06/08 03:12:50;;;;;;;3.83;3.28;;;16.90;94.50;;;;;;5083881;28;20199;-84
2022/06/08 03:15:20;;;;;;;4.20;3.40;;;16.90;94.80;;;;;;5077848;28;20841;-84
2022/06/08 03:17:50;;;;;;;6.47;3.28;;;17.00;94.70;;;;;;5081369;28;20201;-84
2022/06/08 03:20:18;;;;;;;3.85;3.50;;;16.90;95.00;;;;;;5073814;28;20178;-83
2022/06/08 03:22:44;;;;;;;4.15;3.50;;;17.00;94.40;;;;;;5083479;28;20262;-84
2022/06/08 03:25:09;;;;;;;3.35;2.95;;;16.90;94.30;;;;;;5081710;28;20222;-84
2022/06/08 03:27:37;;;;;;;3.30;2.97;;;16.90;94.60;;;;;;5088119;28;20268;-84
2022/06/08 03:30:05;;;;;;;3.85;3.15;;;16.90;94.70;;;;;;5067193;28;20519;-84
2022/06/08 03:32:31;;;;;;;3.13;2.92;;;16.70;94.10;;;;;;5081351;28;20198;-84
2022/06/08 03:34:56;;;;;;;4.80;3.47;;;16.60;95.00;;;;;;5093435;28;20669;-84
2022/06/08 03:37:23;;;;;;;3.70;3.10;;;16.70;94.80;;;;;;5082520;28;20222;-84
2022/06/08 03:39:49;;;;;;;5.78;2.88;;;16.70;94.80;;;;;;5066683;28;20197;-84
2022/06/08 03:42:15;;;;;;;3.58;3.28;;;16.80;94.40;;;;;;5083064;28;20209;-84
2022/06/08 03:44:41;;;;;;;4.80;2.90;;;16.80;94.10;;;;;;5075518;28;20237;-84
2022/06/08 03:47:16;;;;;;;4.28;3.42;;;16.80;94.30;;;;;;5067493;28;20248;-84
2022/06/08 03:49:42;;;;;;;3.47;3.15;;;16.70;94.50;;;;;;5083073;28;20243;-84
2022/06/08 03:52:16;;;;;;;5.60;3.40;;;16.80;94.30;;;;;;5082726;28;20226;-84
2022/06/08 03:54:47;;;;;;;4.15;2.63;;;16.80;94.50;;;;;;5064263;28;20183;-84
2022/06/08 03:57:14;;;;;;;5.25;2.97;;;16.80;94.60;;;;;;5084308;28;20186;-84
2022/06/08 03:59:42;;;;;;;3.33;3.00;;;16.80;94.40;;;;;;5082961;28;20186;-84
2022/06/08 04:02:09;;;;;;;3.37;3.00;;;16.90;94.60;;;;;;5081088;28;20676;-83
2022/06/08 04:04:36;;;;;;;3.92;3.00;;;16.70;94.60;;;;;;5079633;28;20759;-84
2022/06/08 04:07:03;;;;;;;4.32;3.42;;;16.70;94.70;;;;;;5083678;28;20181;-83
2022/06/08 04:09:28;;;;;;;4.13;3.10;;;16.70;95.00;;;;;;5087400;28;20212;-84
2022/06/08 04:11:54;;;;;;;3.93;3.27;;;16.70;95.20;;;;;;5081866;28;20202;-84
2022/06/08 04:14:21;;;;;;;3.43;3.07;;;16.60;95.40;;;;;;5082939;28;20197;-83
2022/06/08 04:16:47;;;;;;;4.72;2.95;;;16.70;95.40;;;;;;5084443;28;20190;-84
2022/06/08 04:19:13;;;;;;;4.75;3.00;;;16.70;95.40;;;;;;5083347;28;20199;-84
2022/06/08 04:21:40;;;;;;;8.15;3.58;;;16.80;94.90;;;;;;5082157;28;20200;-83
2022/06/08 04:24:07;;;;;;;4.63;3.50;;;16.80;95.00;;;;;;5082976;28;20241;-84
2022/06/08 04:26:33;;;;;;;3.83;3.05;;;16.70;95.10;;;;;;5094153;28;20194;-84
2022/06/08 04:28:59;;;;;;;3.35;3.08;;;16.80;94.70;;;;;;5085872;28;20201;-83
2022/06/08 04:31:25;;;;;;;3.17;2.88;;;16.70;95.40;;;;;;5078930;28;20741;-83
2022/06/08 04:33:53;;;;;;;4.63;3.53;;;16.70;95.60;;;;;;5050876;28;20240;-83
2022/06/08 04:36:19;;;;;;;6.55;3.33;;;16.80;94.60;;;;;;5087873;28;20186;-83
2022/06/08 04:38:45;;;;;;;5.70;3.40;;;16.60;95.20;;;;;;5063781;28;20197;-84
2022/06/08 04:41:11;;;;;;;3.50;3.20;;;16.60;95.90;;;;;;5077183;28;20198;-84
2022/06/08 04:43:38;;;;;;;3.87;3.17;;;16.60;95.60;;;;;;5082012;28;20225;-84
2022/06/08 04:46:04;;;;;;;4.78;3.20;;;16.70;95.20;;;;;;5080364;28;20269;-84
2022/06/08 04:48:30;;;;;;;4.47;3.00;;;16.60;95.00;;;;;;5079587;28;20202;-84
2022/06/08 04:50:55;;;;;;;3.67;3.38;;;16.60;95.40;;;;;;5081074;28;20247;-84
2022/06/08 04:53:21;;;;;;;3.70;3.15;;;16.60;95.20;;;;;;5081526;28;20636;-84
2022/06/08 04:55:47;;;;;;;3.20;3.00;;;16.60;95.40;;;;;;5080555;28;20194;-83
2022/06/08 04:58:12;;;;;;;4.22;3.17;;;16.50;96.00;;;;;;5061165;28;20194;-83
2022/06/08 05:00:38;;;;;;;4.38;3.60;;;16.50;96.40;;;;;;5079098;28;20188;-84
2022/06/08 05:03:04;;;;;;;5.28;3.10;;;16.50;95.80;;;;;;5078644;28;20213;-83
2022/06/08 05:05:36;;;;;;;3.42;3.10;;;16.60;96.10;;;;;;5085822;28;20281;-84
2022/06/08 05:08:03;;;;;;;5.30;3.47;;;16.70;95.80;;;;;;5074780;28;20194;-84
2022/06/08 05:10:31;;;;;;;3.47;3.17;;;16.60;95.20;;;;;;5079696;28;20248;-83
2022/06/08 05:12:57;;;;;;;3.45;3.15;;;16.70;95.30;;;;;;5078859;28;20225;-83
2022/06/08 05:15:28;;;;;;;3.28;2.83;;;16.80;95.40;;;;;;5078132;28;20195;-83
2022/06/08 05:17:55;;;;;;;3.70;3.30;;;16.70;95.20;;;;;;5078995;28;20573;-83
2022/06/08 05:20:21;;;;;;;4.23;3.10;;;16.70;95.60;;;;;;5080719;28;20248;-83
2022/06/08 05:22:48;;;;;;;4.03;3.37;;;16.60;96.30;;;;;;5076457;28;20208;-84
2022/06/08 05:25:26;;;;;;;3.60;3.30;;;16.60;97.00;;;;;;5076910;28;20208;-83
2022/06/08 05:27:52;;;;;;;3.67;3.20;;;16.60;97.20;;;;;;5075690;28;20202;-83
2022/06/08 05:30:18;;;;;;;4.20;3.80;;;16.70;97.50;;;;;;5082384;28;20197;-83
2022/06/08 05:32:44;;;;;;;4.88;3.78;;;16.70;97.90;;;;;;5075815;28;20731;-84
2022/06/08 05:35:11;;;;;;;3.63;3.33;;;16.80;97.90;;;;;;5074258;28;20186;-83
2022/06/08 05:37:36;;;;;;;4.03;3.70;;;16.70;97.90;;;;;;5053118;28;20197;-84
2022/06/08 05:40:05;;;;;;;5.03;4.00;;;16.70;99.90;;;;;;5074644;28;20193;-84
2022/06/08 05:42:31;;;;;;;3.87;3.50;;;16.50;99.70;;;;;;5074387;28;20212;-83
2022/06/08 05:44:57;;;;;;;8.37;3.40;;;16.60;99.90;;;;;;5078255;28;20304;-84
2022/06/08 05:47:24;;;;;;;5.27;3.53;;;16.60;98.30;;;;;;5079642;28;20284;-84
2022/06/08 05:49:49;;;;;;;6.20;3.73;;;16.80;98.40;;;;;;5076142;28;20191;-84
2022/06/08 05:52:17;;;;;;;6.47;3.92;;;16.80;98.90;;;;;;5077709;28;20578;-83
2022/06/08 05:54:44;;;;;;;4.30;3.87;;;16.80;99.00;;;;;;5083818;28;20195;-84
2022/06/08 05:57:10;;;;;;;6.07;3.87;;;17.00;98.80;;;;;;5075305;28;20199;-83
2022/06/08 05:59:36;;;;;;;4.67;3.13;;;17.00;98.20;;;;;;5062736;28;20200;-83
2022/06/08 06:02:06;;;;;;;8.60;3.83;;;17.00;97.10;;;;;;5077860;28;20941;-84
2022/06/08 06:04:32;;;;;;;6.60;3.60;;;17.00;99.30;;;;;;5082657;28;20215;-84
2022/06/08 06:06:58;;;;;;;5.45;3.88;;;17.00;98.80;;;;;;5088099;28;20218;-83
2022/06/08 06:09:26;;;;;;;4.60;3.60;;;17.00;99.60;;;;;;5068795;28;20222;-84
2022/06/08 06:11:52;;;;;;;6.32;3.78;;;17.10;99.30;;;;;;5082143;28;20214;-84
2022/06/08 06:14:19;;;;;;;4.75;3.90;;;17.20;97.70;;;;;;5054714;28;20258;-83
2022/06/08 06:16:45;;;;;;;4.75;3.58;;;17.30;98.40;;;;;;5083581;28;20210;-84
2022/06/08 06:19:11;;;;;;;5.32;3.67;;;17.10;98.90;;;;;;5068321;28;20199;-84
2022/06/08 06:21:36;;;;;;;4.30;3.50;;;17.10;98.60;;;;;;5070115;28;20217;-83
2022/06/08 06:24:04;;;;;;;4.82;3.22;;;17.20;98.10;;;;;;5087725;28;20187;-84
2022/06/08 06:26:31;;;;;;;5.47;3.80;;;17.50;97.00;;;;;;5054514;28;20190;-84
2022/06/08 06:28:57;;;;;;;4.13;3.80;;;17.60;96.30;;;;;;5054347;28;21395;-84
2022/06/08 06:31:52;;;;;;;3.67;3.38;;;17.80;95.90;;;;;;5082870;28;20186;-83
2022/06/08 06:34:21;;;;;;;7.20;3.63;;;18.00;95.50;;;;;;5084762;28;20225;-84
2022/06/08 06:36:48;;;;;;;3.50;3.20;;;18.10;94.30;;;;;;5083594;28;20215;-84
2022/06/08 06:39:14;;;;;;;5.22;3.85;;;18.20;92.50;;;;;;5087311;28;20175;-84
2022/06/08 06:41:40;;;;;;;3.95;3.17;;;18.20;92.20;;;;;;5087044;28;20252;-84
2022/06/08 06:44:06;;;;;;;5.60;3.08;;;18.00;93.70;;;;;;5088162;28;20258;-84
2022/06/08 06:46:32;;;;;;;3.75;2.80;;;18.00;91.70;;;;;;5068036;28;20188;-83
2022/06/08 06:48:57;;;;;;;3.50;2.80;;;18.20;89.60;;;;;;5066076;28;20224;-83
2022/06/08 06:51:23;;;;;;;4.03;2.83;;;18.20;91.50;;;;;;5086613;28;20278;-84
2022/06/08 06:53:49;;;;;;;4.07;2.72;;;18.40;88.20;;;;;;5083064;28;20234;-83
2022/06/08 06:56:14;;;;;;;4.45;3.10;;;18.50;88.20;;;;;;5083309;28;20806;-84
2022/06/08 06:58:40;;;;;;;3.35;3.00;;;18.70;89.60;;;;;;5063610;28;20270;-85
2022/06/08 07:01:07;;;;;;;5.55;3.28;;;18.80;89.50;;;;;;5069693;28;20654;-84
2022/06/08 07:03:35;;;;;;;5.28;2.80;;;18.80;89.50;;;;;;5082384;28;20817;-84
2022/06/08 07:06:01;;;;;;;5.28;3.42;;;18.90;88.50;;;;;;5089911;28;20222;-84
2022/06/08 07:08:27;;;;;;;6.93;3.05;;;19.00;86.30;;;;;;5074542;28;20689;-84
2022/06/08 07:13:37;;;;;;;3.55;2.50;;;19.10;87.30;;;;;;5073274;28;20256;-84
2022/06/08 07:16:05;;;;;;;4.63;2.60;;;19.20;85.40;;;;;;5084099;28;20199;-83
2022/06/08 07:18:30;;;;;;;4.82;2.40;;;19.30;80.40;;;;;;5082924;28;20183;-84
2022/06/08 07:20:56;;;;;;;6.25;2.20;;;19.20;82.20;;;;;;5088845;28;20313;-84
2022/06/08 07:23:22;;;;;;;3.92;2.33;;;19.30;79.40;;;;;;5089424;28;20265;-84
2022/06/08 07:25:48;;;;;;;3.92;2.30;;;19.30;81.90;;;;;;5081956;28;20215;-84
2022/06/08 07:28:14;;;;;;;5.15;2.60;;;19.50;82.80;;;;;;5080220;28;20310;-85
2022/06/08 07:30:40;;;;;;;3.85;2.55;;;19.50;81.70;;;;;;5059945;28;20201;-84
2022/06/08 07:33:06;;;;;;;3.15;2.72;;;19.70;81.30;;;;;;5077630;28;20216;-84
2022/06/08 07:35:31;;;;;;;5.50;2.70;;;20.00;79.40;;;;;;5083700;28;20543;-84
2022/06/08 07:37:57;;;;;;;8.45;2.80;;;20.20;76.80;;;;;;5081230;28;20381;-84
2022/06/08 07:40:23;;;;;;;3.45;2.67;;;20.40;75.60;;;;;;5082596;28;20199;-85
2022/06/08 07:42:48;;;;;;;4.55;2.70;;;20.50;77.30;;;;;;5086027;28;20246;-83
2022/06/08 07:45:14;;;;;;;4.93;2.60;;;20.60;72.70;;;;;;5083824;28;20246;-84
2022/06/08 07:50:26;;;;;;;5.72;3.20;;;20.40;73.60;;;;;;5079927;28;20182;-83
2022/06/08 07:52:52;;;;;;;5.38;3.22;;;20.40;73.20;;;;;;5080428;28;20222;-84
2022/06/08 07:55:18;;;;;;;4.78;2.78;;;20.30;75.00;;;;;;5061596;28;20192;-84
2022/06/08 07:57:47;;;;;;;4.07;2.80;;;20.30;76.30;;;;;;5081351;28;20197;-84
2022/06/08 08:00:14;;;;;;;4.93;3.00;;;20.30;73.90;;;;;;5063547;28;20567;-84
2022/06/08 08:02:41;;;;;;;4.50;3.10;;;20.30;75.20;;;;;;5075852;28;20332;-83
2022/06/08 08:05:09;;;;;;;6.57;2.95;;;20.30;78.20;;;;;;5079608;28;20624;-84
2022/06/08 08:07:36;;;;;;;4.63;3.15;;;20.40;76.20;;;;;;5087360;28;20233;-83
2022/06/08 08:10:05;;;;;;;3.78;2.83;;;20.50;72.30;;;;;;5064242;28;20186;-84
2022/06/08 08:12:30;;;;;;;4.30;3.05;;;20.40;76.60;;;;;;5082270;28;20233;-84
2022/06/08 08:14:56;;;;;;;5.78;2.60;;;20.50;73.70;;;;;;5086646;28;20199;-84
2022/06/08 08:17:22;;;;;;;8.35;2.65;;;20.80;72.10;;;;;;5083049;28;20192;-84
2022/06/08 08:19:47;;;;;;;5.70;2.90;;;20.90;69.50;;;;;;5081652;28;20352;-84
2022/06/08 08:22:15;;;;;;;3.83;2.70;;;21.30;69.30;;;;;;5077647;28;20686;-84
2022/06/08 08:24:41;;;;;;;2.90;2.58;;;21.20;67.30;;;;;;5078234;28;20225;-84
2022/06/08 08:27:06;;;;;;;7.32;3.17;;;21.60;66.70;;;;;;5072867;28;20196;-84
2022/06/08 08:29:32;;;;;;;5.32;2.80;;;21.80;63.80;;;;;;5077564;28;20198;-84
2022/06/08 08:31:58;;;;;;;4.78;2.83;;;21.80;65.10;;;;;;5082426;28;20218;-84
2022/06/08 08:34:24;;;;;;;4.90;2.67;;;22.00;65.60;;;;;;5081205;28;20184;-85
2022/06/08 08:36:50;;;;;;;5.95;2.92;;;22.20;63.20;;;;;;5059583;28;20240;-82
2022/06/08 08:39:16;;;;;;;7.88;2.45;;;22.30;62.20;;;;;;5078278;28;20184;-82
2022/06/08 08:44:30;;;;;;;4.85;2.60;;;22.40;65.40;;;;;;5077424;28;20226;-82
2022/06/08 08:47:17;;;;;;;3.83;2.65;;;22.40;63.00;;;;;;5078303;28;20179;-82
2022/06/08 08:49:52;;;;;;;4.20;2.78;;;22.10;66.30;;;;;;5078702;28;20359;-82
2022/06/08 08:52:29;;;;;;;4.20;2.50;;;22.00;65.80;;;;;;5077069;28;20213;-83
2022/06/08 08:55:10;;;;;;;3.53;2.25;;;22.40;61.10;;;;;;5076264;28;20339;-84
2022/06/08 08:57:44;;;;;;;2.95;2.45;;;22.60;61.50;;;;;;5078496;28;20203;-84
2022/06/08 09:00:23;;;;;;;5.65;2.67;;;22.50;60.80;;;;;;5076214;28;20263;-84
2022/06/08 09:05:34;;;;;;;8.38;2.70;;;22.80;60.10;;;;;;5079564;28;20709;-84
2022/06/08 09:08:00;;;;;;;5.13;2.70;;;23.00;57.40;;;;;;5075623;28;20192;-82
2022/06/08 09:10:27;;;;;;;4.38;2.65;;;23.30;56.50;;;;;;5073483;28;20201;-82
2022/06/08 09:12:54;;;;;;;4.25;2.97;;;23.40;57.20;;;;;;5086888;28;20223;-82
2022/06/08 09:15:41;;;;;;;4.45;2.90;;;23.30;57.90;;;;;;5063271;28;20188;-82
2022/06/08 09:18:20;;;;;;;5.45;2.53;;;23.50;58.40;;;;;;5077739;28;20244;-82
2022/06/08 09:20:46;;;;;;;5.78;3.15;;;23.50;58.30;;;;;;5083521;28;20190;-82
2022/06/08 09:23:23;;;;;;;5.30;3.03;;;23.40;55.50;;;;;;5079724;28;20212;-81
2022/06/08 09:26:11;;;;;;;5.78;3.30;;;23.40;61.10;;;;;;5081991;28;20209;-81
2022/06/08 09:28:38;;;;;;;3.88;2.80;;;23.60;57.60;;;;;;5082317;28;20284;-82
2022/06/08 09:31:04;;;;;;;4.40;3.20;;;23.80;59.50;;;;;;5079855;28;20267;-82
2022/06/08 09:33:37;;;;;;;6.40;2.97;;;23.80;58.10;;;;;;5079547;28;20211;-82
2022/06/08 09:36:08;;;;;;;5.40;3.05;;;23.80;58.20;;;;;;5081806;28;20188;-82
2022/06/08 09:38:40;;;;;;;6.82;3.00;;;23.50;59.40;;;;;;5085612;28;20658;-82
2022/06/08 09:41:28;;;;;;;4.65;2.83;;;23.30;60.70;;;;;;5084300;28;20179;-81
2022/06/08 09:44:06;;;;;;;5.32;2.95;;;23.40;58.20;;;;;;5091265;28;20511;-81
2022/06/08 09:53:03;;;;;;;2.90;2.60;;;23.40;54.20;;;;;;5089090;28;20213;-83
2022/06/08 09:55:46;;;;;;;3.40;2.70;;;23.60;57.70;;;;;;5089016;28;20184;-84
2022/06/08 09:58:26;;;;;;;5.20;2.53;;;24.00;56.60;;;;;;5082486;28;20618;-83
2022/06/08 10:01:18;;;;;;;4.35;2.42;;;24.00;51.90;;;;;;5085807;28;20185;-83
2022/06/08 10:04:01;;;;;;;3.30;2.50;;;23.80;56.40;;;;;;5080007;28;20597;-83
2022/06/08 10:06:52;;;;;;;2.63;2.28;;;23.70;53.30;;;;;;5085206;28;20274;-84
2022/06/08 10:09:38;;;;;;;4.15;2.28;;;24.30;54.80;;;;;;5087197;28;20182;-83
2022/06/08 10:12:52;;;;;;;4.40;2.38;;;24.90;46.80;;;;;;5084509;28;20212;-83
2022/06/08 10:15:39;;;;;;;4.93;2.67;;;24.70;49.30;;;;;;5076604;28;20230;-83
2022/06/08 10:18:27;;;;;;;3.22;2.38;;;24.70;50.70;;;;;;5078209;28;20205;-83
2022/06/08 10:21:12;;;;;;;4.85;2.30;;;24.90;48.50;;;;;;5079355;28;20213;-83
2022/06/08 10:24:00;;;;;;;4.68;2.30;;;24.90;48.30;;;;;;5076860;28;20179;-83
2022/06/08 10:27:05;;;;;;;5.18;2.55;;;24.60;45.80;;;;;;5080103;28;20211;-83
2022/06/08 10:29:42;;;;;;;2.83;2.38;;;24.80;47.80;;;;;;5069243;28;20199;-83
2022/06/08 10:32:29;;;;;;;3.58;2.13;;;25.30;46.70;;;;;;5083220;28;20203;-84
2022/06/08 10:34:55;;;;;;;2.50;2.25;;;25.60;44.50;;;;;;5082369;28;20214;-84
2022/06/08 10:37:35;;;;;;;2.85;2.00;;;25.20;42.10;;;;;;5066950;28;20183;-83
2022/06/08 10:40:13;;;;;;;3.08;2.47;;;25.30;44.50;;;;;;5082458;28;20657;-82
2022/06/08 10:42:50;;;;;;;5.53;2.55;;;25.20;42.00;;;;;;5086314;28;20207;-82
2022/06/08 10:45:24;;;;;;;3.70;2.38;;;25.10;43.70;;;;;;5081904;28;20210;-82
2022/06/08 10:48:12;;;;;;;3.55;2.67;;;25.40;44.00;;;;;;5085259;28;20232;-82
2022/06/08 10:50:43;;;;;;;4.30;2.33;;;25.70;44.00;;;;;;5080683;28;20190;-83
2022/06/08 10:56:23;;;;;;;7.82;2.40;;;25.80;41.30;;;;;;5083288;28;20186;-82
2022/06/08 10:59:07;;;;;;;4.05;2.42;;;26.00;38.50;;;;;;5088871;28;20196;-83
2022/06/08 11:01:36;;;;;;;4.32;2.17;;;26.10;39.70;;;;;;5065675;28;20290;-83
2022/06/08 11:04:05;;;;;;;2.60;2.20;;;26.10;39.40;;;;;;5083413;28;20199;-82
2022/06/08 11:06:46;;;;;;;4.00;2.17;;;25.70;38.80;;;;;;5066230;28;20211;-82
2022/06/08 11:09:33;;;;;;;4.05;2.30;;;26.00;37.80;;;;;;5083886;28;20258;-82
2022/06/08 11:12:13;;;;;;;5.45;2.95;;;25.50;38.20;;;;;;5080991;28;20215;-82
2022/06/08 11:14:48;;;;;;;2.67;2.30;;;25.40;41.80;;;;;;5082740;28;20428;-84
2022/06/08 11:17:26;;;;;;;3.75;2.30;;;25.20;40.70;;;;;;5085999;28;20273;-82
2022/06/08 11:19:56;;;;;;;3.67;2.10;;;25.30;41.70;;;;;;5087703;28;20295;-83
2022/06/08 11:22:27;;;;;;;7.32;2.17;;;25.60;42.10;;;;;;5088028;28;20238;-83
2022/06/08 11:24:56;;;;;;;3.00;2.22;;;26.10;41.20;;;;;;5083717;28;20666;-83
2022/06/08 11:27:24;;;;;;;3.22;2.40;;;26.80;36.90;;;;;;5086628;28;20182;-82
2022/06/08 11:30:01;;;;;;;3.38;2.33;;;26.80;38.20;;;;;;5084421;28;20267;-83
2022/06/08 11:32:32;;;;;;;5.10;2.15;;;26.60;38.20;;;;;;5087364;28;20217;-83
2022/06/08 11:35:35;;;;;;;3.70;2.35;;;26.60;36.90;;;;;;5086749;28;20313;-83
2022/06/08 11:38:18;;;;;;;2.67;2.00;;;26.60;38.30;;;;;;5064238;28;20192;-82
2022/06/08 11:40:45;;;;;;;2.88;2.25;;;26.50;36.40;;;;;;5091401;28;20195;-82
2022/06/08 11:43:13;;;;;;;3.28;2.60;;;26.70;36.40;;;;;;5092703;28;20218;-83
2022/06/08 11:45:44;;;;;;;5.45;2.30;;;26.70;37.30;;;;;;5092321;28;20195;-83
2022/06/08 11:48:15;;;;;;;4.35;2.28;;;26.80;40.40;;;;;;5087636;28;20206;-83
2022/06/08 11:50:52;;;;;;;4.32;2.35;;;26.30;40.00;;;;;;5089541;28;20171;-83
2022/06/08 11:53:28;;;;;;;3.17;2.28;;;26.30;38.90;;;;;;5094426;28;20215;-82
2022/06/08 11:56:22;;;;;;;4.47;2.60;;;26.60;40.90;;;;;;5088343;28;20182;-82
2022/06/08 11:58:57;;;;;;;5.35;2.70;;;26.30;40.50;;;;;;5089098;28;20188;-83
2022/06/08 12:01:38;;;;;;;3.38;2.30;;;26.00;41.90;;;;;;5089213;28;20195;-82
2022/06/08 12:04:14;;;;;;;5.65;2.50;;;25.90;40.50;;;;;;5083347;28;20211;-83
2022/06/08 12:06:41;;;;;;;4.90;2.20;;;25.70;42.70;;;;;;5093534;28;20621;-82
2022/06/08 12:09:15;;;;;;;3.53;2.28;;;25.60;42.40;;;;;;5093503;28;20214;-82
2022/06/08 12:11:50;;;;;;;3.72;2.50;;;25.60;41.60;;;;;;5092686;28;20200;-82
2022/06/08 12:14:30;;;;;;;4.43;2.20;;;25.50;39.90;;;;;;5093963;28;20185;-82
2022/06/08 12:16:55;;;;;;;2.50;2.08;;;25.50;40.80;;;;;;5083332;28;20230;-82
2022/06/08 12:19:24;;;;;;;3.65;2.22;;;25.40;39.80;;;;;;5088588;28;20261;-83
2022/06/08 12:22:15;;;;;;;4.00;2.45;;;25.10;42.80;;;;;;5099011;28;20231;-82
2022/06/08 12:24:41;;;;;;;4.75;2.05;;;24.90;40.90;;;;;;5094429;28;20270;-82
2022/06/08 12:27:24;;;;;;;2.08;1.95;;;24.90;41.00;;;;;;5090933;28;20218;-82
2022/06/08 12:29:57;;;;;;;4.07;2.13;;;24.90;42.40;;;;;;5083190;28;20281;-82
2022/06/08 12:32:34;;;;;;;5.10;2.40;;;24.90;40.60;;;;;;5087529;28;20287;-80
2022/06/08 12:35:21;;;;;;;3.08;2.13;;;24.90;40.00;;;;;;5069433;28;20319;-82
2022/06/08 12:37:48;;;;;;;4.05;2.25;;;24.90;40.80;;;;;;5090834;28;20183;-82
2022/06/08 12:40:16;;;;;;;4.15;2.25;;;24.90;41.70;;;;;;5085873;28;20195;-82
2022/06/08 12:42:54;;;;;;;3.55;2.05;;;24.80;40.70;;;;;;5089830;28;20690;-81
2022/06/08 12:45:45;;;;;;;2.28;1.98;;;24.70;39.70;;;;;;5089047;28;20356;-82
2022/06/08 12:48:24;;;;;;;2.67;2.10;;;24.60;39.90;;;;;;5078780;28;20241;-82
2022/06/08 12:50:53;;;;;;;3.90;2.30;;;24.50;39.70;;;;;;5067387;28;20210;-82
2022/06/08 12:53:21;;;;;;;3.83;2.33;;;24.40;40.00;;;;;;5085916;28;20299;-81
2022/06/08 12:55:46;;;;;;;5.05;2.30;;;24.30;43.10;;;;;;5091479;28;20205;-82
2022/06/08 12:58:12;;;;;;;3.72;1.90;;;24.40;41.00;;;;;;5086778;28;20682;-82
2022/06/08 13:00:47;;;;;;;2.53;2.28;;;24.60;39.80;;;;;;5091409;28;20201;-82
2022/06/08 13:03:24;;;;;;;3.90;2.00;;;24.60;41.40;;;;;;5088157;28;20214;-83
2022/06/08 13:05:51;;;;;;;3.55;2.13;;;24.60;41.10;;;;;;5088234;28;20207;-82
2022/06/08 13:08:20;;;;;;;2.30;2.03;;;24.60;43.20;;;;;;5090520;28;20325;-82
2022/06/08 13:10:48;;;;;;;3.20;2.22;;;24.50;42.60;;;;;;5056656;28;20184;-81
2022/06/08 13:13:19;;;;;;;3.42;2.20;;;24.30;41.10;;;;;;5082944;28;20219;-81
2022/06/08 13:15:46;;;;;;;7.22;2.47;;;24.20;42.60;;;;;;5078405;28;20184;-82
2022/06/08 13:18:16;;;;;;;4.20;2.13;;;24.30;43.90;;;;;;5079598;28;20249;-82
2022/06/08 13:20:43;;;;;;;3.75;2.25;;;24.30;44.70;;;;;;5090465;28;20193;-82
2022/06/08 13:23:09;;;;;;;4.07;2.38;;;24.20;45.70;;;;;;5087453;28;20220;-82
2022/06/08 13:25:36;;;;;;;3.95;2.30;;;24.00;46.40;;;;;;5089016;28;20218;-82
2022/06/08 13:28:26;;;;;;;3.58;2.25;;;23.80;45.80;;;;;;5087519;28;20210;-82
2022/06/08 13:30:55;;;;;;;2.95;2.20;;;23.70;47.30;;;;;;5082046;28;20171;-82
2022/06/08 13:36:22;;;;;;;3.78;2.35;;;23.40;51.10;;;;;;5097766;28;20240;-82
2022/06/08 13:38:52;;;;;;;4.07;2.67;;;23.40;51.50;;;;;;5082798;28;20207;-82